Ludell, Kansas
Current Conditions -  °F | °C
As of 5:55 PM on Saturday 22 Nov 2014 (Local Time) from KCBK Reporting Station
Clear Clear  
Wind Chill: 50°   Ceiling: Unl
Heat Index: 50°   Visibility: 10mi
Dew Point: 23°   Wind: 7mph
Humidity: 35%   Direction: 200°SSW
Pressure: 29.56"   Gusts: NA
Location:  39.86°N, 100.96°W
Report Text: KCBK 222355Z AUTO 20006KT 10SM CLR 10/M05 A2956 RMK AO2
Loading
Personal Weather Stations






























Interactive Weather Map New forecast layout! Learn more

10-Day Weather Forecast

Advertisements
Track Severe Weather on mobile